Time;durP1;ratioP1;P1;durP2;ratioP2;P2;SDS_P1;SDS_P2;PMS_P1;PMS_P2;Temp;Humidity;BMP_temperature;BMP_pressure;BME280_temperature;BME280_humidity;BME280_pressure;Samples;Min_cycle;Max_cycle;Signal;HPM_P1;HPM_P2
2021/04/13 00:01:35;;;;;;;1.67;0.55;;;21.00;49.60;;;;;;20860038;28;20089;-23
2021/04/13 00:11:37;;;;;;;6.25;0.70;;;20.80;49.90;;;;;;20866944;28;20124;-22
2021/04/13 00:21:42;;;;;;;2.38;0.65;;;20.70;50.30;;;;;;20865371;28;20021;-21
2021/04/13 00:31:45;;;;;;;1.98;0.75;;;20.70;49.60;;;;;;20846056;28;20028;-22
2021/04/13 00:41:59;;;;;;;1.98;1.05;;;20.60;49.40;;;;;;20870041;28;20063;-22
2021/04/13 00:52:12;;;;;;;3.55;0.55;;;20.50;50.10;;;;;;20861116;28;20036;-22
2021/04/13 01:02:19;;;;;;;2.70;0.63;;;20.40;47.30;;;;;;20877363;28;20032;-22
2021/04/13 01:12:32;;;;;;;2.33;0.90;;;20.30;46.40;;;;;;20867995;28;20439;-22
2021/04/13 01:23:00;;;;;;;3.67;0.88;;;20.20;46.40;;;;;;20859948;28;20033;-22
2021/04/13 01:33:30;;;;;;;1.20;0.77;;;20.10;46.70;;;;;;20857250;28;20104;-21
2021/04/13 01:43:34;;;;;;;1.90;0.70;;;20.00;46.40;;;;;;20848472;28;20090;-22
2021/04/13 01:53:37;;;;;;;2.75;0.80;;;20.00;45.80;;;;;;20867841;28;20020;-22
2021/04/13 02:03:44;;;;;;;1.88;0.55;;;19.90;46.00;;;;;;20908876;22;20034;-21
2021/04/13 02:14:01;;;;;;;1.45;0.73;;;19.80;46.10;;;;;;20964084;28;20044;-21
2021/04/13 02:24:08;;;;;;;1.58;0.80;;;19.80;46.10;;;;;;20976982;28;20060;-21
2021/04/13 02:34:13;;;;;;;1.73;0.73;;;19.70;46.10;;;;;;20992202;28;20020;-20
2021/04/13 02:44:17;;;;;;;1.35;0.52;;;19.70;46.10;;;;;;20982155;28;20025;-21
2021/04/13 02:54:24;;;;;;;2.28;1.17;;;19.60;46.10;;;;;;21001144;28;20052;-20
2021/04/13 03:04:26;;;;;;;1.60;0.50;;;19.50;46.60;;;;;;20999152;28;20044;-21
2021/04/13 03:14:33;;;;;;;1.83;0.50;;;19.60;46.60;;;;;;20962853;28;20045;-21
2021/04/13 03:24:40;;;;;;;2.03;0.68;;;19.50;46.70;;;;;;20934806;28;20117;-21
2021/04/13 03:34:42;;;;;;;7.93;0.60;;;19.50;46.60;;;;;;20958194;28;20061;-21
2021/04/13 03:44:44;;;;;;;2.00;0.65;;;19.40;46.20;;;;;;20971236;28;20033;-21
2021/04/13 03:54:45;;;;;;;2.15;0.50;;;19.40;46.20;;;;;;20965383;28;20060;-20
2021/04/13 04:04:45;;;;;;;3.60;1.15;;;19.40;46.10;;;;;;20963104;28;20032;-20
2021/04/13 04:15:07;;;;;;;3.15;0.60;;;19.40;45.90;;;;;;20965357;28;20047;-21
2021/04/13 04:25:32;;;;;;;2.63;0.73;;;19.70;46.50;;;;;;20962166;28;20032;-21
2021/04/13 04:35:40;;;;;;;2.55;1.23;;;20.50;43.70;;;;;;20971788;28;20127;-21
2021/04/13 04:45:44;;;;;;;3.70;1.00;;;21.50;41.40;;;;;;20955971;28;20119;-22
2021/04/13 04:55:52;;;;;;;2.88;0.75;;;22.30;39.40;;;;;;20946017;28;20620;-21
2021/04/13 05:05:54;;;;;;;3.20;0.57;;;22.30;39.10;;;;;;20941505;28;20035;-21
2021/04/13 05:15:54;;;;;;;1.85;0.55;;;22.00;39.40;;;;;;20950461;28;20029;-21
2021/04/13 05:25:55;;;;;;;2.25;0.60;;;21.70;39.80;;;;;;20967749;28;20440;-21
2021/04/13 05:35:57;;;;;;;1.63;0.52;;;21.40;40.20;;;;;;20952838;28;20040;-21
2021/04/13 05:46:00;;;;;;;3.10;0.73;;;21.20;40.60;;;;;;20938263;28;20115;-21
2021/04/13 05:56:01;;;;;;;2.10;0.47;;;21.10;41.10;;;;;;20922497;28;20456;-21
2021/04/13 06:06:02;;;;;;;3.58;1.10;;;21.00;41.50;;;;;;20956016;28;20056;-21
2021/04/13 06:16:05;;;;;;;3.03;0.83;;;21.10;41.40;;;;;;20977654;28;20048;-20
2021/04/13 06:26:06;;;;;;;3.83;0.70;;;21.00;41.70;;;;;;20990307;28;21003;-21
2021/04/13 06:36:07;;;;;;;3.65;0.90;;;21.10;41.70;;;;;;20996745;28;20390;-21
2021/04/13 06:46:39;;;;;;;2.97;0.82;;;21.00;41.80;;;;;;20998545;28;20475;-21
2021/04/13 06:56:56;;;;;;;11.90;2.50;;;21.10;41.60;;;;;;20996755;28;20089;-21
2021/04/13 07:07:04;;;;;;;11.73;2.20;;;21.00;41.90;;;;;;20998553;28;20060;-21
2021/04/13 07:17:16;;;;;;;10.10;2.23;;;21.30;42.70;;;;;;20984567;28;20343;-22
2021/04/13 07:27:23;;;;;;;11.02;2.97;;;21.70;41.20;;;;;;20997037;28;20052;-21
2021/04/13 07:37:39;;;;;;;19.93;3.27;;;21.90;41.30;;;;;;20995681;28;20078;-21
2021/04/13 07:48:09;;;;;;;17.23;3.03;;;22.30;40.70;;;;;;20995375;28;20424;-21
2021/04/13 07:58:31;;;;;;;21.80;3.47;;;22.70;40.00;;;;;;20994237;28;20036;-22
2021/04/13 08:08:37;;;;;;;21.80;3.25;;;22.90;39.80;;;;;;20974221;22;20036;-22
2021/04/13 08:18:43;;;;;;;13.88;2.88;;;22.90;40.10;;;;;;20977980;28;20117;-22
2021/04/13 08:29:10;;;;;;;15.85;2.85;;;22.70;40.30;;;;;;20940198;28;20506;-22
2021/04/13 08:39:25;;;;;;;22.95;4.22;;;22.50;40.90;;;;;;20960098;28;20368;-22
2021/04/13 08:49:43;;;;;;;13.52;2.97;;;22.20;41.50;;;;;;20957050;28;20028;-22
2021/04/13 08:59:52;;;;;;;20.77;3.47;;;22.30;41.50;;;;;;20950730;28;20102;-22
2021/04/13 09:10:15;;;;;;;;;;;22.10;41.80;;;;;;20956770;28;20631;-23
2021/04/13 09:20:25;;;;;;;15.38;3.45;;;22.30;41.70;;;;;;20939372;28;20398;-22
2021/04/13 09:30:33;;;;;;;17.67;2.83;;;22.10;41.70;;;;;;20945459;28;20032;-22
2021/04/13 09:40:45;;;;;;;17.92;2.78;;;22.50;41.30;;;;;;20965221;28;20032;-22
2021/04/13 09:51:10;;;;;;;11.32;2.35;;;22.40;41.60;;;;;;20989690;28;20119;-22
2021/04/13 10:01:15;;;;;;;11.50;3.40;;;22.50;41.40;;;;;;20994465;28;20028;-22
2021/04/13 10:11:47;;;;;;;8.43;2.30;;;22.30;41.90;;;;;;21000263;28;20036;-22
2021/04/13 10:22:12;;;;;;;15.60;2.42;;;22.00;42.50;;;;;;20992949;28;20446;-22
2021/04/13 10:32:45;;;;;;;9.77;2.33;;;21.70;43.10;;;;;;20935387;28;20580;-22
2021/04/13 10:43:01;;;;;;;9.45;2.67;;;21.50;43.20;;;;;;20979465;28;20029;-21
2021/04/13 10:53:16;;;;;;;8.27;2.47;;;21.30;43.30;;;;;;20993047;28;20033;-21
2021/04/13 11:04:07;;;;;;;15.63;5.60;;;21.10;43.40;;;;;;20995784;28;20024;-21
2021/04/13 11:14:15;;;;;;;22.92;9.15;;;21.00;43.60;;;;;;21009392;28;20023;-22
2021/04/13 11:24:48;;;;;;;33.78;12.13;;;20.90;43.90;;;;;;20998497;28;20059;-23
2021/04/13 11:35:07;;;;;;;46.10;16.25;;;21.10;43.90;;;;;;21009610;28;20025;-22
2021/04/13 11:45:26;;;;;;;;;;;21.50;43.20;;;;;;20992440;28;20029;-23
2021/04/13 11:55:27;;;;;;;56.90;24.20;;;21.90;42.10;;;;;;20995684;28;19908;-23
2021/04/13 12:05:42;;;;;;;49.22;22.73;;;22.70;40.80;;;;;;20972613;28;20071;-23
2021/04/13 12:15:55;;;;;;;46.70;21.65;;;23.10;39.90;;;;;;20958808;28;20024;-23
2021/04/13 12:25:56;;;;;;;39.83;19.25;;;22.90;40.40;;;;;;20948442;28;20071;-23
2021/04/13 12:36:02;;;;;;;35.85;17.70;;;22.50;41.00;;;;;;20929296;28;20037;-23
2021/04/13 12:46:38;;;;;;;39.17;15.23;;;22.10;41.60;;;;;;20953303;28;20024;-23
2021/04/13 12:56:39;;;;;;;33.15;13.00;;;21.80;42.20;;;;;;20974315;28;20037;-23
2021/04/13 13:06:45;;;;;;;32.65;13.18;;;22.00;42.50;;;;;;20945068;28;20095;-22
2021/04/13 13:16:55;;;;;;;23.42;10.60;;;21.80;43.70;;;;;;20922635;28;20112;-22
2021/04/13 13:26:55;;;;;;;28.15;11.10;;;21.90;43.80;;;;;;20963921;28;20029;-22
2021/04/13 13:36:58;;;;;;;24.10;7.53;;;21.90;44.70;;;;;;20923741;28;20031;-22
2021/04/13 13:47:05;;;;;;;18.75;6.78;;;21.90;43.20;;;;;;20944010;28;20020;-22
2021/04/13 13:57:15;;;;;;;19.25;6.72;;;21.70;43.10;;;;;;20941700;28;20410;-22
2021/04/13 14:07:30;;;;;;;17.05;5.30;;;21.90;42.60;;;;;;20935320;28;20093;-22
2021/04/13 14:17:33;;;;;;;10.40;4.13;;;21.80;42.60;;;;;;20951226;28;20036;-23
2021/04/13 14:27:34;;;;;;;6.20;3.15;;;22.00;42.40;;;;;;20948245;28;20030;-23
2021/04/13 14:37:40;;;;;;;7.28;2.83;;;21.90;41.90;;;;;;20974343;28;20052;-23
2021/04/13 14:47:41;;;;;;;5.15;1.77;;;21.90;41.80;;;;;;20951994;28;20060;-22
2021/04/13 14:57:41;;;;;;;6.22;1.92;;;22.40;41.50;;;;;;20997032;28;20033;-22
2021/04/13 15:07:43;;;;;;;6.82;2.00;;;22.40;41.90;;;;;;20995429;28;20028;-22
2021/04/13 15:17:43;;;;;;;7.85;1.98;;;22.60;41.90;;;;;;20998014;28;20029;-22
2021/04/13 15:27:45;;;;;;;8.25;1.50;;;22.80;42.00;;;;;;20994368;28;20036;-23
2021/04/13 15:38:06;;;;;;;3.97;1.27;;;22.90;42.10;;;;;;20990003;28;20023;-22
2021/04/13 15:48:14;;;;;;;9.38;1.63;;;22.90;42.10;;;;;;20991943;28;20424;-23
2021/04/13 15:58:14;;;;;;;24.85;1.88;;;22.80;42.30;;;;;;21004088;28;20398;-23
2021/04/13 16:08:15;;;;;;;3.15;1.00;;;22.70;42.80;;;;;;20988688;28;20062;-22
2021/04/13 16:18:16;;;;;;;3.80;0.80;;;22.70;43.10;;;;;;20988656;28;20402;-23
2021/04/13 16:28:16;;;;;;;3.75;0.85;;;22.60;42.00;;;;;;20986004;28;20108;-23
2021/04/13 16:38:20;;;;;;;3.05;0.75;;;22.70;41.60;;;;;;20985782;28;20027;-23
2021/04/13 16:48:27;;;;;;;5.20;1.00;;;22.70;41.80;;;;;;20986569;28;20111;-23
2021/04/13 16:58:28;;;;;;;7.68;0.75;;;22.90;41.40;;;;;;20990449;28;20024;-23
2021/04/13 17:08:49;;;;;;;3.20;0.90;;;22.80;41.80;;;;;;20987203;28;20562;-23
2021/04/13 17:18:54;;;;;;;3.13;0.55;;;23.00;41.70;;;;;;20942233;28;20059;-23
2021/04/13 17:28:59;;;;;;;2.78;0.70;;;22.80;42.00;;;;;;20952931;28;20536;-23
2021/04/13 17:39:05;;;;;;;16.10;1.38;;;22.60;42.30;;;;;;20959835;28;20395;-23
2021/04/13 17:49:08;;;;;;;19.90;2.13;;;22.70;43.20;;;;;;20953725;28;20029;-23
2021/04/13 17:59:10;;;;;;;15.45;1.50;;;22.60;43.10;;;;;;20963091;28;20395;-22
2021/04/13 18:09:23;;;;;;;5.78;1.17;;;22.70;42.80;;;;;;20957591;28;20055;-22
2021/04/13 18:19:34;;;;;;;7.13;1.38;;;22.70;43.00;;;;;;20984217;28;20035;-21
2021/04/13 18:29:42;;;;;;;13.88;2.63;;;22.70;42.70;;;;;;20963686;28;20064;-23
2021/04/13 18:39:43;;;;;;;12.60;1.63;;;22.70;42.50;;;;;;20954899;28;20021;-22
2021/04/13 18:49:49;;;;;;;5.78;0.95;;;22.70;42.70;;;;;;20970081;28;20072;-23
2021/04/13 18:59:59;;;;;;;6.55;1.10;;;22.90;42.60;;;;;;20983403;28;20027;-23
2021/04/13 19:10:05;;;;;;;7.95;0.95;;;23.10;42.70;;;;;;20971792;28;20391;-22
2021/04/13 19:20:23;;;;;;;4.22;0.77;;;23.10;42.60;;;;;;20966914;28;20464;-22
2021/04/13 19:30:32;;;;;;;8.63;1.35;;;23.00;42.80;;;;;;20972352;28;20478;-21
2021/04/13 19:40:36;;;;;;;6.47;1.77;;;23.10;42.60;;;;;;20971052;28;20025;-22
2021/04/13 19:50:41;;;;;;;5.15;1.65;;;23.00;43.00;;;;;;20998332;28;20036;-22
2021/04/13 20:00:46;;;;;;;4.68;1.02;;;23.00;42.80;;;;;;20982285;28;20040;-23
2021/04/13 20:10:53;;;;;;;6.28;0.68;;;22.90;42.90;;;;;;21000195;28;20082;-23
2021/04/13 20:20:57;;;;;;;5.13;1.30;;;22.90;42.70;;;;;;20922663;22;20037;-20
2021/04/13 20:31:02;;;;;;;5.90;1.23;;;22.60;43.40;;;;;;20855315;28;20038;-22
2021/04/13 20:41:13;;;;;;;3.70;0.68;;;22.30;44.20;;;;;;20833656;28;20036;-21
2021/04/13 20:51:30;;;;;;;14.57;1.25;;;22.00;44.70;;;;;;20823254;28;20025;-21
2021/04/13 21:01:45;;;;;;;4.43;1.25;;;21.90;44.90;;;;;;20823313;28;20087;-22
2021/04/13 21:11:48;;;;;;;7.60;1.77;;;21.70;45.10;;;;;;20823458;28;20041;-22
2021/04/13 21:22:16;;;;;;;3.70;0.43;;;21.50;45.40;;;;;;20824065;28;20093;-21
2021/04/13 21:32:33;;;;;;;3.47;0.77;;;21.40;45.50;;;;;;20820991;28;20025;-22
2021/04/13 21:42:56;;;;;;;3.72;0.77;;;21.20;46.10;;;;;;20812061;28;20044;-22
2021/04/13 21:53:29;;;;;;;5.60;0.60;;;21.10;45.80;;;;;;20810509;28;20411;-22
2021/04/13 22:03:41;;;;;;;1.42;0.70;;;21.10;45.70;;;;;;20757333;28;20065;-21
2021/04/13 22:13:48;;;;;;;5.32;1.52;;;21.00;45.50;;;;;;20820066;28;20056;-20
2021/04/13 22:24:01;;;;;;;5.65;1.15;;;20.90;45.40;;;;;;20819500;28;20038;-21
2021/04/13 22:34:03;;;;;;;2.70;0.70;;;20.80;45.40;;;;;;20799858;28;20053;-21
2021/04/13 22:44:06;;;;;;;3.70;0.60;;;20.60;45.50;;;;;;20817604;28;20026;-20
2021/04/13 22:54:24;;;;;;;3.13;0.90;;;20.40;45.70;;;;;;20817168;28;20025;-21
2021/04/13 23:04:25;;;;;;;4.90;0.80;;;20.30;45.90;;;;;;20822939;28;20025;-21
2021/04/13 23:14:25;;;;;;;5.65;0.40;;;20.30;46.50;;;;;;20831677;28;20392;-21
2021/04/13 23:24:27;;;;;;;4.22;0.50;;;20.30;45.90;;;;;;20830104;28;20045;-21
2021/04/13 23:34:27;;;;;;;3.35;1.15;;;20.20;45.90;;;;;;20829057;28;20083;-21
2021/04/13 23:44:28;;;;;;;1.63;0.50;;;20.20;45.90;;;;;;20828922;28;20076;-22
2021/04/13 23:54:31;;;;;;;4.50;0.60;;;20.10;45.80;;;;;;20827885;28;20064;-21
